Time,TemperatureF,DewpointF,PressureIn,WindDirection,WindDirectionDegrees,WindSpeedMPH,WindSpeedGustMPH,Humidity,HourlyPrecipIn,Conditions,Clouds,dailyrainin,SoftwareType,DateUTC
2013-10-28 00:06:00,40.3,32.7,29.93,SSW,202,0.0,-999.0,74,-99.99,,,0.00,Acu-Link.com,2013-10-28 04:06:00,
2013-10-28 00:21:00,39.4,31.8,29.94,SSW,202,2.2,-999.0,74,-99.99,,,0.00,Acu-Link.com,2013-10-28 04:21:00,
2013-10-28 00:37:00,39.2,31.6,29.94,South,180,0.0,-999.0,74,-99.99,,,0.00,Acu-Link.com,2013-10-28 04:37:00,
2013-10-28 00:52:00,38.1,31.2,29.95,South,180,0.0,-999.0,76,-99.99,,,0.00,Acu-Link.com,2013-10-28 04:52:00,
2013-10-28 01:07:00,37.8,31.2,29.95,South,180,0.0,-999.0,77,-99.99,,,0.00,Acu-Link.com,2013-10-28 05:07:00,
2013-10-28 01:22:00,37.4,30.9,29.95,South,180,1.1,-999.0,77,-99.99,,,0.00,Acu-Link.com,2013-10-28 05:22:00,
2013-10-28 01:37:00,36.7,30.5,29.95,SSW,202,0.0,-999.0,78,-99.99,,,0.00,Acu-Link.com,2013-10-28 05:37:00,
2013-10-28 01:52:00,36.7,30.8,29.95,SW,225,0.0,-999.0,79,-99.99,,,0.00,Acu-Link.com,2013-10-28 05:52:00,
2013-10-28 02:07:00,36.1,30.2,29.95,SSW,202,0.0,-999.0,79,-99.99,,,0.00,Acu-Link.com,2013-10-28 06:07:00,
2013-10-28 02:23:00,36.3,30.4,29.96,WSW,247,0.0,-999.0,79,-99.99,,,0.00,Acu-Link.com,2013-10-28 06:23:00,
2013-10-28 02:38:00,36.0,30.1,29.96,SSE,157,0.0,-999.0,79,-99.99,,,0.00,Acu-Link.com,2013-10-28 06:38:00,
2013-10-28 02:53:00,35.4,30.2,29.97,South,180,0.0,-999.0,81,-99.99,,,0.00,Acu-Link.com,2013-10-28 06:53:00,
2013-10-28 03:08:00,35.4,30.2,29.97,WNW,292,0.0,-999.0,81,-99.99,,,0.00,Acu-Link.com,2013-10-28 07:08:00,
2013-10-28 03:23:00,34.9,29.7,29.98,SSW,202,0.0,-999.0,81,-99.99,,,0.00,Acu-Link.com,2013-10-28 07:23:00,
2013-10-28 03:38:00,35.1,30.2,29.98,South,180,0.0,-999.0,82,-99.99,,,0.00,Acu-Link.com,2013-10-28 07:38:00,
2013-10-28 03:53:00,34.2,29.9,30.00,NNW,337,2.2,-999.0,84,-99.99,,,0.00,Acu-Link.com,2013-10-28 07:53:00,
2013-10-28 04:08:00,34.2,29.9,30.00,SSW,202,0.0,-999.0,84,-99.99,,,0.00,Acu-Link.com,2013-10-28 08:08:00,
2013-10-28 04:24:00,34.2,30.2,30.00,SSE,157,0.0,-999.0,85,-99.99,,,0.00,Acu-Link.com,2013-10-28 08:24:00,
2013-10-28 04:39:00,34.2,30.2,30.00,NNW,337,0.0,-999.0,85,-99.99,,,0.00,Acu-Link.com,2013-10-28 08:39:00,
2013-10-28 04:54:00,33.8,29.8,30.01,WSW,247,0.0,-999.0,85,-99.99,,,0.00,Acu-Link.com,2013-10-28 08:54:00,
2013-10-28 05:09:00,34.0,30.3,30.02,North,0,1.1,-999.0,86,-99.99,,,0.00,Acu-Link.com,2013-10-28 09:09:00,
2013-10-28 05:24:00,34.2,30.5,30.03,WSW,247,0.0,-999.0,86,-99.99,,,0.00,Acu-Link.com,2013-10-28 09:24:00,
2013-10-28 05:39:00,34.0,30.5,30.04,NNE,22,0.0,-999.0,87,-99.99,,,0.00,Acu-Link.com,2013-10-28 09:39:00,
2013-10-28 05:54:00,34.0,30.8,30.05,NNW,337,0.0,-999.0,88,-99.99,,,0.00,Acu-Link.com,2013-10-28 09:54:00,
2013-10-28 06:09:00,33.8,30.6,30.05,ENE,67,0.0,-999.0,88,-99.99,,,0.00,Acu-Link.com,2013-10-28 10:09:00,
2013-10-28 06:25:00,34.0,31.1,30.06,SE,135,0.0,-999.0,89,-99.99,,,0.00,Acu-Link.com,2013-10-28 10:25:00,
2013-10-28 06:40:00,33.6,30.7,30.07,South,180,0.0,-999.0,89,-99.99,,,0.00,Acu-Link.com,2013-10-28 10:40:00,
2013-10-28 06:55:00,33.1,30.5,30.07,North,0,0.0,-999.0,90,-99.99,,,0.00,Acu-Link.com,2013-10-28 10:55:00,
2013-10-28 07:10:00,33.4,31.1,30.08,NNW,337,0.0,-999.0,91,-99.99,,,0.00,Acu-Link.com,2013-10-28 11:10:00,
2013-10-28 07:25:00,34.9,33.1,30.09,NNE,22,0.0,-999.0,93,-99.99,,,0.00,Acu-Link.com,2013-10-28 11:25:00,
2013-10-28 07:40:00,37.8,35.7,30.09,NNW,337,4.7,-999.0,92,-99.99,,,0.00,Acu-Link.com,2013-10-28 11:40:00,
2013-10-28 07:55:00,39.6,36.6,30.11,NNW,337,4.2,-999.0,89,-99.99,,,0.00,Acu-Link.com,2013-10-28 11:55:00,
2013-10-28 08:10:00,40.3,36.7,30.12,North,0,3.2,-999.0,87,-99.99,,,0.00,Acu-Link.com,2013-10-28 12:10:00,
2013-10-28 08:26:00,40.8,36.9,30.13,NNE,22,3.2,-999.0,86,-99.99,,,0.00,Acu-Link.com,2013-10-28 12:26:00,
2013-10-28 08:41:00,41.2,37.0,30.14,North,0,2.7,-999.0,85,-99.99,,,0.00,Acu-Link.com,2013-10-28 12:41:00,
2013-10-28 08:56:00,41.5,37.0,30.15,NNE,22,3.2,-999.0,84,-99.99,,,0.00,Acu-Link.com,2013-10-28 12:56:00,
2013-10-28 09:11:00,41.9,36.8,30.16,ENE,67,4.7,-999.0,82,-99.99,,,0.00,Acu-Link.com,2013-10-28 13:11:00,
2013-10-28 09:26:00,42.1,36.7,30.17,NNE,22,6.3,-999.0,81,-99.99,,,0.00,Acu-Link.com,2013-10-28 13:26:00,
2013-10-28 09:41:00,42.4,36.7,30.18,NNW,337,3.7,-999.0,80,-99.99,,,0.00,Acu-Link.com,2013-10-28 13:41:00,
2013-10-28 09:57:00,42.6,36.6,30.19,NNE,22,5.8,-999.0,79,-99.99,,,0.00,Acu-Link.com,2013-10-28 13:57:00,
2013-10-28 10:12:00,43.3,36.9,30.20,NNE,22,3.2,-999.0,78,-99.99,,,0.00,Acu-Link.com,2013-10-28 14:12:00,
2013-10-28 10:27:00,43.9,36.8,30.20,NNW,337,4.2,-999.0,76,-99.99,,,0.00,Acu-Link.com,2013-10-28 14:27:00,
2013-10-28 10:42:00,44.8,37.0,30.21,North,0,4.2,-999.0,74,-99.99,,,0.00,Acu-Link.com,2013-10-28 14:42:00,
2013-10-28 10:57:00,44.1,36.7,30.22,NNW,337,2.7,-999.0,75,-99.99,,,0.00,Acu-Link.com,2013-10-28 14:57:00,
2013-10-28 11:12:00,45.7,37.5,30.22,SSE,157,3.2,-999.0,73,-99.99,,,0.00,Acu-Link.com,2013-10-28 15:12:00,
2013-10-28 11:32:00,46.4,37.2,30.22,SSE,157,2.7,-999.0,70,-99.99,,,0.00,Acu-Link.com,2013-10-28 15:32:00,
2013-10-28 11:47:00,47.1,35.9,30.23,ENE,67,5.8,-999.0,65,-99.99,,,0.00,Acu-Link.com,2013-10-28 15:47:00,
2013-10-28 12:03:00,47.8,36.6,30.24,East,90,6.3,-999.0,65,-99.99,,,0.00,Acu-Link.com,2013-10-28 16:03:00,
2013-10-28 12:18:00,49.1,37.5,30.24,North,0,5.8,-999.0,64,-99.99,,,0.00,Acu-Link.com,2013-10-28 16:18:00,
2013-10-28 12:33:00,49.1,37.5,30.24,NE,45,4.2,-999.0,64,-99.99,,,0.00,Acu-Link.com,2013-10-28 16:33:00,
2013-10-28 12:48:00,49.3,37.6,30.25,NW,315,2.2,-999.0,64,-99.99,,,0.00,Acu-Link.com,2013-10-28 16:48:00,
2013-10-28 13:03:00,49.3,37.2,30.25,East,90,3.2,-999.0,63,-99.99,,,0.00,Acu-Link.com,2013-10-28 17:03:00,
2013-10-28 13:19:00,47.7,36.9,30.25,North,0,1.7,-999.0,66,-99.99,,,0.00,Acu-Link.com,2013-10-28 17:19:00,
2013-10-28 13:34:00,46.9,36.5,30.25,NE,45,2.7,-999.0,67,-99.99,,,0.00,Acu-Link.com,2013-10-28 17:34:00,
2013-10-28 13:49:00,46.2,35.9,30.25,NE,45,2.2,-999.0,67,-99.99,,,0.00,Acu-Link.com,2013-10-28 17:49:00,
2013-10-28 14:04:00,46.2,35.9,30.25,East,90,2.2,-999.0,67,-99.99,,,0.00,Acu-Link.com,2013-10-28 18:04:00,
2013-10-28 14:19:00,45.7,35.0,30.25,NE,45,0.0,-999.0,66,-99.99,,,0.00,Acu-Link.com,2013-10-28 18:19:00,
2013-10-28 14:34:00,45.5,34.8,30.25,ENE,67,4.7,-999.0,66,-99.99,,,0.00,Acu-Link.com,2013-10-28 18:34:00,
2013-10-28 14:49:00,45.3,35.0,30.25,ESE,112,1.7,-999.0,67,-99.99,,,0.00,Acu-Link.com,2013-10-28 18:49:00,
2013-10-28 15:04:00,45.3,35.4,30.26,ENE,67,2.7,-999.0,68,-99.99,,,0.00,Acu-Link.com,2013-10-28 19:04:00,
2013-10-28 15:19:00,45.0,34.7,30.26,East,90,4.2,-999.0,67,-99.99,,,0.00,Acu-Link.com,2013-10-28 19:19:00,
2013-10-28 15:35:00,44.6,34.7,30.26,West,270,3.2,-999.0,68,-99.99,,,0.00,Acu-Link.com,2013-10-28 19:35:00,
2013-10-28 15:50:00,43.7,34.9,30.27,East,90,3.7,-999.0,71,-99.99,,,0.00,Acu-Link.com,2013-10-28 19:50:00,
2013-10-28 16:05:00,43.5,34.7,30.27,East,90,4.2,-999.0,71,-99.99,,,0.00,Acu-Link.com,2013-10-28 20:05:00,
2013-10-28 16:20:00,43.2,34.4,30.27,East,90,5.3,-999.0,71,-99.99,,,0.00,Acu-Link.com,2013-10-28 20:20:00,
2013-10-28 16:35:00,43.0,34.3,30.27,East,90,4.7,-999.0,71,-99.99,,,0.00,Acu-Link.com,2013-10-28 20:35:00,
2013-10-28 16:50:00,42.6,33.9,30.27,SSE,157,4.2,-999.0,71,-99.99,,,0.00,Acu-Link.com,2013-10-28 20:50:00,
2013-10-28 17:05:00,42.6,33.9,30.28,East,90,2.7,-999.0,71,-99.99,,,0.00,Acu-Link.com,2013-10-28 21:05:00,
2013-10-28 17:20:00,42.1,32.7,30.28,ESE,112,4.2,-999.0,69,-99.99,,,0.00,Acu-Link.com,2013-10-28 21:20:00,
2013-10-28 17:35:00,42.1,32.7,30.28,ESE,112,2.7,-999.0,69,-99.99,,,0.00,Acu-Link.com,2013-10-28 21:35:00,
2013-10-28 17:50:00,42.1,32.7,30.27,SE,135,0.0,-999.0,69,-99.99,,,0.00,Acu-Link.com,2013-10-28 21:50:00,
2013-10-28 18:06:00,41.7,32.3,30.27,NNE,22,1.7,-999.0,69,-99.99,,,0.00,Acu-Link.com,2013-10-28 22:06:00,
2013-10-28 18:21:00,41.5,32.1,30.27,ESE,112,0.0,-999.0,69,-99.99,,,0.00,Acu-Link.com,2013-10-28 22:21:00,
2013-10-28 18:36:00,41.4,32.4,30.28,ESE,112,0.0,-999.0,70,-99.99,,,0.00,Acu-Link.com,2013-10-28 22:36:00,
2013-10-28 18:51:00,41.0,32.0,30.28,West,270,0.0,-999.0,70,-99.99,,,0.00,Acu-Link.com,2013-10-28 22:51:00,
2013-10-28 19:06:00,41.0,32.0,30.28,ENE,67,3.2,-999.0,70,-99.99,,,0.00,Acu-Link.com,2013-10-28 23:06:00,
2013-10-28 19:21:00,40.8,31.8,30.29,ESE,112,2.2,-999.0,70,-99.99,,,0.00,Acu-Link.com,2013-10-28 23:21:00,
2013-10-28 19:36:00,40.8,31.4,30.30,NNW,337,3.2,-999.0,69,-99.99,,,0.00,Acu-Link.com,2013-10-28 23:36:00,
2013-10-28 19:52:00,40.6,31.2,30.31,North,0,2.7,-999.0,69,-99.99,,,0.00,Acu-Link.com,2013-10-28 23:52:00,
2013-10-28 20:07:00,40.3,31.7,30.31,NNE,22,3.7,-999.0,71,-99.99,,,0.00,Acu-Link.com,2013-10-29 00:07:00,
2013-10-28 20:22:00,40.1,31.5,30.31,SSE,157,3.2,-999.0,71,-99.99,,,0.00,Acu-Link.com,2013-10-29 00:22:00,
2013-10-28 20:38:00,39.7,31.1,30.31,NNW,337,1.7,-999.0,71,-99.99,,,0.00,Acu-Link.com,2013-10-29 00:38:00,
2013-10-28 20:53:00,39.7,31.1,30.31,North,0,4.2,-999.0,71,-99.99,,,0.00,Acu-Link.com,2013-10-29 00:53:00,
2013-10-28 21:08:00,39.6,30.6,30.32,NE,45,1.1,-999.0,70,-99.99,,,0.00,Acu-Link.com,2013-10-29 01:08:00,
2013-10-28 21:23:00,39.4,30.4,30.32,East,90,3.2,-999.0,70,-99.99,,,0.00,Acu-Link.com,2013-10-29 01:23:00,
2013-10-28 21:38:00,39.4,30.1,30.32,NE,45,1.7,-999.0,69,-99.99,,,0.00,Acu-Link.com,2013-10-29 01:38:00,
2013-10-28 21:53:00,39.4,30.4,30.33,SE,135,2.7,-999.0,70,-99.99,,,0.00,Acu-Link.com,2013-10-29 01:53:00,
2013-10-28 22:08:00,39.2,30.6,30.33,NNE,22,1.1,-999.0,71,-99.99,,,0.00,Acu-Link.com,2013-10-29 02:08:00,
2013-10-28 22:23:00,39.0,30.4,30.34,East,90,2.2,-999.0,71,-99.99,,,0.00,Acu-Link.com,2013-10-29 02:23:00,
2013-10-28 22:38:00,38.8,30.2,30.34,North,0,3.2,-999.0,71,-99.99,,,0.00,Acu-Link.com,2013-10-29 02:38:00,
2013-10-28 22:54:00,38.8,30.2,30.34,ENE,67,0.0,-999.0,71,-99.99,,,0.00,Acu-Link.com,2013-10-29 02:54:00,
2013-10-28 23:09:00,38.8,30.2,30.34,WNW,292,2.7,-999.0,71,-99.99,,,0.00,Acu-Link.com,2013-10-29 03:09:00,
2013-10-28 23:24:00,38.7,30.1,30.34,NE,45,2.2,-999.0,71,-99.99,,,0.00,Acu-Link.com,2013-10-29 03:24:00,
2013-10-28 23:39:00,38.7,30.1,30.35,NNE,22,3.2,-999.0,71,-99.99,,,0.00,Acu-Link.com,2013-10-29 03:39:00,
2013-10-28 23:54:00,38.7,30.5,30.34,NE,45,1.1,-999.0,72,-99.99,,,0.00,Acu-Link.com,2013-10-29 03:54:00,